createdAt,value
2022-10-24T00:10:21.536Z,1.2
2022-10-24T00:22:21.179Z,0.8
2022-10-24T00:34:21.298Z,0.8
2022-10-24T00:46:21.275Z,0.8
2022-10-24T00:58:21.283Z,1.0
2022-10-24T01:10:21.182Z,1.0
2022-10-24T01:22:21.199Z,1.8
2022-10-24T01:34:21.188Z,1.8
2022-10-24T01:46:21.250Z,1.8
2022-10-24T01:58:21.182Z,0.9
2022-10-24T02:10:21.197Z,0.9
2022-10-24T02:22:21.183Z,0.9
2022-10-24T02:34:21.185Z,0.9
2022-10-24T02:46:21.186Z,0.9
2022-10-24T02:58:21.258Z,1.4
2022-10-24T03:10:21.222Z,1.4
2022-10-24T03:22:21.183Z,0.8
2022-10-24T03:34:21.851Z,0.8
2022-10-24T03:46:21.303Z,0.8
2022-10-24T03:58:21.183Z,1.1
2022-10-24T04:10:21.283Z,1.1
2022-10-24T04:34:21.182Z,1.1
2022-10-24T04:46:21.198Z,1.1
2022-10-24T04:58:21.298Z,1.7
2022-10-24T05:10:21.288Z,1.7
2022-10-24T05:22:21.293Z,1.1
2022-10-24T05:34:21.188Z,1.1
2022-10-24T05:46:21.179Z,1.1
2022-10-24T05:58:21.189Z,1.4
2022-10-24T06:10:21.286Z,1.4
2022-10-24T06:22:21.207Z,0.8
2022-10-24T06:46:21.177Z,0.8
2022-10-24T06:58:22.623Z,1.1
2022-10-24T07:10:21.181Z,1.1
2022-10-24T07:22:21.176Z,3.2
2022-10-24T07:34:21.192Z,3.2
2022-10-24T07:46:21.233Z,3.2
2022-10-24T07:58:21.266Z,2.1
2022-10-24T08:10:21.179Z,2.1
2022-10-24T08:22:21.192Z,5.0
2022-10-24T08:34:21.182Z,5.0
2022-10-24T08:46:21.211Z,5.0
2022-10-24T08:58:21.208Z,6.0
2022-10-24T09:10:21.288Z,6.0
2022-10-24T09:22:21.400Z,5.8
2022-10-24T09:34:21.180Z,5.8
2022-10-24T09:46:21.188Z,5.8
2022-10-24T09:58:21.237Z,3.4
2022-10-24T10:10:21.187Z,3.4
2022-10-24T10:22:21.623Z,3.0
2022-10-24T10:34:21.701Z,3.0
2022-10-24T10:46:21.184Z,3.0
2022-10-24T10:58:21.179Z,4.0
2022-10-24T11:10:21.298Z,4.0
2022-10-24T11:22:21.199Z,2.3
2022-10-24T11:34:21.191Z,2.3
2022-10-24T11:46:21.190Z,2.3
2022-10-24T11:58:21.303Z,4.0
2022-10-24T12:10:21.250Z,4.0
2022-10-24T12:22:21.274Z,2.2
2022-10-24T12:34:21.190Z,2.2
2022-10-24T12:46:23.112Z,2.2
2022-10-24T12:58:21.284Z,2.6
2022-10-24T13:10:21.286Z,2.6
2022-10-24T13:22:21.276Z,2.2
2022-10-24T13:34:21.189Z,2.2
2022-10-24T13:46:21.280Z,2.2
2022-10-24T13:58:21.183Z,2.9
2022-10-24T14:10:21.300Z,2.9
2022-10-24T14:22:21.229Z,1.8
2022-10-24T14:34:21.253Z,1.8
2022-10-24T14:46:25.538Z,1.8
2022-10-24T14:58:21.299Z,1.1
2022-10-24T15:10:21.273Z,1.1
2022-10-24T15:22:21.184Z,2.2
2022-10-24T15:34:21.287Z,2.2
2022-10-24T15:46:21.268Z,2.2
2022-10-24T15:58:21.220Z,1.9
2022-10-24T16:10:21.271Z,1.9
2022-10-24T16:22:21.182Z,1.9
2022-10-24T16:34:21.242Z,1.9
2022-10-24T16:46:21.203Z,1.9
2022-10-24T16:58:21.192Z,6.9
2022-10-24T17:10:23.868Z,6.9
2022-10-24T17:22:21.248Z,4.5
2022-10-24T17:34:21.257Z,4.5
2022-10-24T17:46:21.284Z,4.5
2022-10-24T17:58:21.296Z,5.9
2022-10-24T18:10:21.284Z,5.9
2022-10-24T18:22:21.186Z,5.5
2022-10-24T18:34:21.275Z,5.5
2022-10-24T18:46:21.298Z,5.5
2022-10-24T18:58:21.235Z,8.1
2022-10-24T19:10:21.266Z,8.1
2022-10-24T19:22:21.182Z,6.2
2022-10-24T19:34:21.196Z,6.2
2022-10-24T19:46:21.237Z,6.2
2022-10-24T19:58:21.265Z,5.5
2022-10-24T20:22:21.182Z,6.0
2022-10-24T20:34:21.249Z,6.0
2022-10-24T20:46:21.320Z,6.0
2022-10-24T20:58:21.296Z,5.2
2022-10-24T21:10:21.274Z,5.2
2022-10-24T21:22:21.193Z,4.6
2022-10-24T21:34:21.292Z,4.6
2022-10-24T21:46:21.186Z,4.6
2022-10-24T21:58:21.225Z,5.5
2022-10-24T22:10:21.242Z,5.5
2022-10-24T22:22:21.185Z,4.5
2022-10-24T22:34:21.194Z,4.5
2022-10-24T22:46:21.303Z,4.5
2022-10-24T22:58:21.243Z,3.0
2022-10-24T23:10:21.302Z,3.0
2022-10-24T23:22:21.184Z,3.9
2022-10-24T23:34:21.295Z,3.9
2022-10-24T23:46:21.269Z,3.9
2022-10-24T23:58:21.294Z,4.3
